createdAt,value
2023-02-25T11:11:57.365Z,1.00
2023-02-25T11:12:57.343Z,1.50
2023-02-25T11:13:57.493Z,1.20
2023-02-25T11:14:57.217Z,0.80
2023-02-25T11:15:57.244Z,1.20
2023-02-25T11:16:57.195Z,1.10
2023-02-25T11:17:57.205Z,2.40
2023-02-25T11:18:57.174Z,1.10
2023-02-25T11:19:57.157Z,0.80
2023-02-25T11:20:57.714Z,0.80
2023-02-25T11:21:57.290Z,0.90
2023-02-25T11:23:49.783Z,1.00
2023-02-25T11:24:49.816Z,0.90
2023-02-25T11:25:50.680Z,0.80
2023-02-25T11:26:49.777Z,0.70
2023-02-25T11:27:49.821Z,0.60
2023-02-25T11:28:49.736Z,0.90
2023-02-25T11:32:37.665Z,0.80
2023-02-25T11:33:37.621Z,1.10
2023-02-25T11:34:37.846Z,1.00
2023-02-25T11:35:37.587Z,0.90
2023-02-25T11:36:39.063Z,0.90
2023-02-25T11:37:41.981Z,1.00
2023-02-25T11:38:47.279Z,1.10
2023-02-25T11:39:37.544Z,1.00
2023-02-25T11:40:37.521Z,1.10
2023-02-25T11:41:37.520Z,1.00
2023-02-25T11:42:37.509Z,0.90
2023-02-25T11:43:37.525Z,1.20
2023-02-25T11:44:37.476Z,1.40
2023-02-25T11:45:38.754Z,1.20
2023-02-25T11:47:44.126Z,1.30
2023-02-25T11:48:33.733Z,1.40
2023-02-25T11:49:33.558Z,1.20
2023-02-25T11:50:33.549Z,1.00
2023-02-25T11:51:33.580Z,0.90
2023-02-25T11:52:33.521Z,1.10
2023-02-25T11:53:34.357Z,0.90
2023-02-25T11:54:34.170Z,0.90
2023-02-25T11:55:33.960Z,0.60
2023-02-25T11:56:33.483Z,0.80
2023-02-25T11:57:33.467Z,0.80
2023-02-25T11:58:33.497Z,1.00
2023-02-25T11:59:33.487Z,0.80
2023-02-25T12:00:33.448Z,0.70
2023-02-25T12:01:33.450Z,1.10
2023-02-25T12:02:34.551Z,0.70
2023-02-25T12:04:25.449Z,0.90
2023-02-25T12:05:25.465Z,1.10
2023-02-25T12:06:25.706Z,1.30
2023-02-25T12:07:25.391Z,1.20
2023-02-25T12:08:25.362Z,1.00
2023-02-25T12:09:25.353Z,0.90
2023-02-25T12:10:26.066Z,0.80
2023-02-25T12:11:25.814Z,0.90
2023-02-25T12:12:25.305Z,0.90
2023-02-25T12:13:25.372Z,0.80
2023-02-25T12:14:25.280Z,1.00
2023-02-25T12:15:25.299Z,1.20
2023-02-25T12:16:25.624Z,0.80
2023-02-25T12:17:25.268Z,1.00
2023-02-25T12:18:25.288Z,0.90
2023-02-25T12:19:26.445Z,1.10
2023-02-25T12:20:26.135Z,0.90
2023-02-25T12:21:25.657Z,1.10
2023-02-25T12:22:25.250Z,1.20
2023-02-25T12:23:25.182Z,1.00
2023-02-25T12:24:25.200Z,1.40
2023-02-25T12:25:25.208Z,1.40
2023-02-25T12:26:25.151Z,1.10
2023-02-25T12:27:25.165Z,1.40
2023-02-25T12:31:00.113Z,1.30
2023-02-25T12:32:00.163Z,1.90
2023-02-25T12:33:00.613Z,1.60
2023-02-25T12:34:00.820Z,3.10
2023-02-25T12:35:00.021Z,2.20
2023-02-25T12:35:59.970Z,1.40
2023-02-25T12:36:59.984Z,1.20
2023-02-25T12:37:59.947Z,1.10
2023-02-25T12:38:59.922Z,1.40
2023-02-25T12:39:59.906Z,1.20
2023-02-25T12:40:59.895Z,1.10
2023-02-25T12:42:00.179Z,1.20
2023-02-25T12:43:00.928Z,1.50
2023-02-25T12:44:00.121Z,1.20
2023-02-25T12:44:59.873Z,1.30
2023-02-25T12:45:59.895Z,0.90
2023-02-25T12:46:59.844Z,0.90
2023-02-25T12:47:59.834Z,1.20
2023-02-25T12:48:59.807Z,1.20
2023-02-25T12:49:59.796Z,1.30
2023-02-25T12:51:00.340Z,1.00
2023-02-25T12:52:02.109Z,1.10
2023-02-25T12:54:23.578Z,1.20
2023-02-25T12:55:23.659Z,1.60
2023-02-25T12:56:23.506Z,1.70
2023-02-25T12:57:23.457Z,1.20
2023-02-25T12:58:23.470Z,1.20
2023-02-25T12:59:23.442Z,1.90
2023-02-25T13:00:23.423Z,1.60
2023-02-25T13:01:23.781Z,1.60
2023-02-25T13:02:23.425Z,2.40
2023-02-25T13:03:24.612Z,3.40
2023-02-25T13:04:26.146Z,2.50
2023-02-25T13:05:24.966Z,1.80
2023-02-25T13:06:23.381Z,1.10
2023-02-25T13:07:23.352Z,1.20
2023-02-25T13:08:23.372Z,1.30
2023-02-25T13:09:23.322Z,1.10
2023-02-25T13:10:23.351Z,1.30
2023-02-25T13:11:23.625Z,1.90
2023-02-25T13:12:23.916Z,1.50
